EDAC/ADC METAR and TAF weather

Enter ICAO airport designator
Station Type Date Time Source
EDAC METAR 2020/01/18 21:20 UTC NOAA

EDAC 182120Z AUTO 22004KT 9999 // BKN067/// 02/M00 Q1025


Station Type Date Time Source
EDAC Decoded METAR 2020/01/18 21:20 UTC NOAA

Altenburg Nobitz, Germany (EDAC) 50-58N 012-30E
Jan 18, 2020 - 04:20 PM EST / 2020.01.18 2120 UTC
Wind: from the SW (220 degrees) at 5 MPH (4 KT):0
Visibility: greater than 7 mile(s):0
Sky conditions: mostly cloudy
Temperature: 35 F (2 C)
Windchill: 30 F (-1 C):1
Dew Point: 32 F (0 C)
Relative Humidity: 86%
Pressure (altimeter): 30.27 in. Hg (1025 hPa)
ob: EDAC 182120Z AUTO 22004KT 9999 // BKN067/// 02/M00 Q1025
cycle: 21

Station Type Date Time Source
EDAC TAF UTC NOAA

Error!

Example: see airport list